Time;durP1;ratioP1;P1;durP2;ratioP2;P2;SDS_P1;SDS_P2;PMS_P1;PMS_P2;Temp;Humidity;BMP_temperature;BMP_pressure;BME280_temperature;BME280_humidity;BME280_pressure;Samples;Min_cycle;Max_cycle;Signal;HPM_P1;HPM_P2
2022/06/02 00:00:19;;;;;;;3.15;1.58;;;11.50;99.90;;;;;;4918165;29;20031;-73
2022/06/02 00:03:01;;;;;;;2.72;1.27;;;11.80;99.90;;;;;;4920723;29;20099;-71
2022/06/02 00:05:52;;;;;;;3.33;1.27;;;12.10;99.90;;;;;;4919508;29;20066;-67
2022/06/02 00:08:21;;;;;;;1.95;1.15;;;12.40;99.90;;;;;;4918600;29;20023;-73
2022/06/02 00:11:02;;;;;;;3.17;1.48;;;12.60;99.90;;;;;;4921672;29;20052;-69
2022/06/02 00:13:56;;;;;;;1.75;1.00;;;12.80;99.90;;;;;;4919688;29;20031;-69
2022/06/02 00:16:32;;;;;;;5.10;2.10;;;12.80;99.90;;;;;;4931839;28;20484;-67
2022/06/02 00:19:06;;;;;;;4.35;1.70;;;12.80;99.90;;;;;;4961768;28;20038;-74
2022/06/02 00:21:53;;;;;;;7.32;1.90;;;12.90;99.90;;;;;;4961459;28;20035;-74
2022/06/02 00:24:27;;;;;;;4.28;1.85;;;12.90;99.90;;;;;;4938629;28;20073;-73
2022/06/02 00:27:03;;;;;;;3.78;2.05;;;12.80;99.90;;;;;;4960215;28;20365;-71
2022/06/02 00:29:39;;;;;;;3.58;1.63;;;12.90;99.90;;;;;;4944213;28;20043;-68
2022/06/02 00:32:21;;;;;;;6.00;2.38;;;13.00;99.90;;;;;;4957721;28;20020;-72
2022/06/02 00:34:59;;;;;;;3.27;1.10;;;13.10;99.90;;;;;;4961535;28;20031;-67
2022/06/02 00:37:32;;;;;;;2.60;1.35;;;13.30;99.90;;;;;;4959995;28;20031;-72
2022/06/02 00:40:01;;;;;;;2.15;1.05;;;13.40;99.90;;;;;;4959105;28;20055;-71
2022/06/02 00:42:40;;;;;;;2.50;1.20;;;13.50;99.90;;;;;;4949027;28;20087;-67
2022/06/02 00:45:15;;;;;;;4.28;1.30;;;13.60;99.90;;;;;;4960294;28;20031;-68
2022/06/02 00:48:08;;;;;;;5.10;1.50;;;13.70;99.90;;;;;;4959846;28;20456;-66
2022/06/02 00:51:13;;;;;;;3.25;1.10;;;13.90;99.90;;;;;;4959026;28;20109;-72
2022/06/02 01:00:00;;;;;;;1.92;1.30;;;14.60;99.90;;;;;;4881745;29;20195;-74
2022/06/02 01:02:30;;;;;;;2.92;1.10;;;14.40;99.90;;;;;;4883011;29;20068;-68
2022/06/02 01:05:00;;;;;;;5.28;1.63;;;14.20;99.90;;;;;;4882636;29;20103;-74
2022/06/02 01:07:49;;;;;;;6.43;1.50;;;14.10;99.90;;;;;;4881072;29;20079;-74
2022/06/02 01:10:52;;;;;;;2.83;1.10;;;14.20;99.90;;;;;;4883182;29;20458;-74
2022/06/02 01:13:26;;;;;;;5.13;1.25;;;14.30;99.90;;;;;;4884119;29;20061;-68
2022/06/02 01:16:16;;;;;;;2.95;1.30;;;14.30;99.90;;;;;;4882866;29;20107;-67
2022/06/02 01:19:12;;;;;;;4.25;1.40;;;14.30;99.90;;;;;;4884715;29;20038;-67
2022/06/02 01:21:54;;;;;;;3.88;1.48;;;14.50;99.90;;;;;;4865251;29;20105;-68
2022/06/02 01:24:44;;;;;;;8.77;1.83;;;14.60;99.90;;;;;;4863943;29;20029;-73
2022/06/02 01:27:11;;;;;;;3.78;1.23;;;14.90;99.90;;;;;;4872629;29;20047;-67
2022/06/02 01:29:38;;;;;;;2.40;1.02;;;14.90;99.90;;;;;;4897859;29;20048;-74
2022/06/02 01:32:10;;;;;;;6.57;1.27;;;15.00;99.90;;;;;;4894817;29;20076;-73
2022/06/02 01:35:03;;;;;;;2.17;0.93;;;15.10;99.90;;;;;;4897051;29;20568;-68
2022/06/02 01:37:29;;;;;;;;;;;15.10;99.90;;;;;;4897440;29;20099;-67
2022/06/02 01:40:34;;;;;;;1.75;0.75;;;15.00;99.20;;;;;;4894972;29;19920;-73
2022/06/02 01:43:14;;;;;;;9.85;1.45;;;15.00;99.00;;;;;;4818518;29;20049;-73
2022/06/02 01:46:08;;;;;;;2.60;0.77;;;15.00;98.90;;;;;;4823204;29;20042;-68
2022/06/02 01:48:56;;;;;;;4.63;0.63;;;15.10;98.70;;;;;;4822840;29;20186;-67
2022/06/02 01:51:49;;;;;;;4.38;0.90;;;15.10;98.00;;;;;;4823507;29;20045;-68
2022/06/02 01:54:21;;;;;;;;;;;15.10;97.80;;;;;;4821968;29;20682;-68
2022/06/02 01:57:09;;;;;;;3.47;0.80;;;15.10;97.90;;;;;;4822905;29;20324;-67
2022/06/02 01:59:57;;;;;;;5.93;0.80;;;15.20;98.20;;;;;;4857384;29;20064;-68
2022/06/02 02:02:45;;;;;;;1.88;0.60;;;15.30;97.60;;;;;;4858242;29;20053;-72
2022/06/02 02:05:35;;;;;;;2.42;1.08;;;15.30;96.70;;;;;;4867814;29;20155;-72
2022/06/02 02:08:40;;;;;;;3.03;0.73;;;15.20;97.60;;;;;;4855777;29;20279;-67
2022/06/02 02:11:11;;;;;;;1.92;0.55;;;15.10;97.00;;;;;;4841480;29;20030;-72
2022/06/02 02:13:50;;;;;;;1.40;0.80;;;15.00;97.70;;;;;;4841057;29;20156;-72
2022/06/02 02:16:44;;;;;;;2.13;0.50;;;15.00;97.50;;;;;;4841972;29;20103;-70
2022/06/02 02:19:34;;;;;;;4.72;0.70;;;15.00;97.00;;;;;;4863075;29;20055;-71
2022/06/02 02:22:16;;;;;;;2.88;0.80;;;15.10;97.40;;;;;;4899319;29;20044;-66
2022/06/02 02:25:01;;;;;;;1.58;0.70;;;15.40;97.50;;;;;;4903074;29;20028;-66
2022/06/02 02:28:02;;;;;;;1.25;0.60;;;15.50;97.00;;;;;;4905655;29;20532;-66
2022/06/02 02:30:23;;;;;;;7.67;1.13;;;15.70;97.00;;;;;;4903759;29;20697;-66
2022/06/02 02:33:08;;;;;;;5.70;0.93;;;16.00;97.20;;;;;;4902264;29;20048;-67
2022/06/02 02:36:01;;;;;;;2.75;0.80;;;16.30;96.40;;;;;;4905060;29;20048;-71
2022/06/02 02:38:35;;;;;;;1.00;0.63;;;16.60;95.80;;;;;;4900160;29;20842;-66
2022/06/02 02:41:12;;;;;;;1.80;0.60;;;16.50;95.50;;;;;;4910156;28;20038;-71
2022/06/02 02:43:48;;;;;;;2.63;1.00;;;16.60;96.00;;;;;;4958648;28;20407;-68
2022/06/02 02:46:20;;;;;;;0.95;0.50;;;16.70;94.30;;;;;;4957203;28;20484;-71
2022/06/02 02:49:04;;;;;;;0.90;0.60;;;16.60;94.80;;;;;;4957641;28;20057;-66
2022/06/02 02:51:31;;;;;;;1.35;0.60;;;16.60;95.50;;;;;;4953353;28;20465;-65
2022/06/02 02:54:03;;;;;;;0.98;0.50;;;16.60;94.90;;;;;;4951343;28;20089;-69
2022/06/02 02:56:54;;;;;;;1.92;0.60;;;16.60;95.20;;;;;;4953856;28;20131;-68
2022/06/02 02:59:32;;;;;;;3.17;0.90;;;16.50;96.10;;;;;;4948799;29;20447;-69
2022/06/02 03:02:40;;;;;;;1.48;0.52;;;16.60;95.40;;;;;;4954859;29;20066;-65
2022/06/02 03:05:22;;;;;;;2.72;0.70;;;16.50;94.70;;;;;;4951228;29;20042;-66
2022/06/02 03:07:49;;;;;;;3.72;0.75;;;16.50;95.10;;;;;;4955348;28;20400;-64
2022/06/02 03:10:39;;;;;;;2.08;0.80;;;16.40;95.40;;;;;;4958682;28;20048;-64
2022/06/02 03:13:27;;;;;;;0.80;0.55;;;16.30;96.40;;;;;;4955326;28;20038;-64
2022/06/02 03:16:10;;;;;;;14.00;2.72;;;16.20;95.60;;;;;;4946908;28;20086;-67
2022/06/02 03:18:59;;;;;;;;;;;16.10;95.50;;;;;;4953422;28;20035;-64
2022/06/02 03:21:43;;;;;;;3.53;0.85;;;16.00;96.30;;;;;;4893422;29;19970;-66
2022/06/02 03:24:33;;;;;;;2.10;0.82;;;16.00;96.10;;;;;;4898567;29;20033;-66
2022/06/02 03:27:35;;;;;;;9.38;2.17;;;16.20;96.10;;;;;;4895025;29;20049;-66
2022/06/02 03:30:24;;;;;;;5.57;1.33;;;16.40;95.70;;;;;;4894800;29;20080;-70
2022/06/02 03:33:16;;;;;;;2.67;1.35;;;16.40;95.80;;;;;;4894522;29;20033;-70
2022/06/02 03:36:11;;;;;;;2.13;0.98;;;16.40;95.60;;;;;;4895681;29;20086;-64
2022/06/02 03:39:04;;;;;;;7.50;1.55;;;16.40;95.50;;;;;;4895268;29;20067;-66
2022/06/02 03:42:03;;;;;;;3.22;0.88;;;16.60;95.00;;;;;;4891676;29;20433;-69
2022/06/02 03:45:11;;;;;;;2.88;0.70;;;16.70;95.20;;;;;;4891989;29;20072;-69
2022/06/02 03:48:15;;;;;;;3.08;0.77;;;16.60;95.30;;;;;;4877080;29;20481;-64
2022/06/02 03:51:07;;;;;;;1.75;0.90;;;16.80;94.70;;;;;;4873823;29;20323;-64
2022/06/02 03:54:03;;;;;;;2.30;1.25;;;17.20;94.80;;;;;;4876928;29;20917;-66
2022/06/02 03:56:35;;;;;;;3.47;0.77;;;17.40;93.90;;;;;;4879412;29;20063;-70
2022/06/02 03:59:02;;;;;;;;;;;17.60;93.00;;;;;;4903560;29;20040;-65
2022/06/02 04:01:39;;;;;;;1.20;0.60;;;17.70;93.50;;;;;;4913071;29;19915;-70
2022/06/02 04:04:13;;;;;;;1.50;0.77;;;17.80;92.90;;;;;;4913269;29;20032;-67
2022/06/02 04:06:52;;;;;;;2.42;0.90;;;17.90;92.30;;;;;;4913193;29;20031;-69
2022/06/02 04:09:21;;;;;;;1.58;0.70;;;18.00;92.50;;;;;;4906974;29;20020;-67
2022/06/02 04:15:04;;;;;;;2.08;0.63;;;18.20;92.40;;;;;;4907246;29;20047;-65
2022/06/02 04:17:42;;;;;;;;;;;18.30;91.90;;;;;;4913893;29;20123;-68
2022/06/02 04:20:35;;;;;;;4.93;3.10;;;18.30;92.20;;;;;;4914379;29;19942;-70
2022/06/02 04:23:37;;;;;;;;;;;18.20;92.20;;;;;;4913487;29;20028;-67
2022/06/02 04:26:38;;;;;;;1.95;0.65;;;18.20;91.30;;;;;;4885687;29;20353;-64
2022/06/02 04:29:18;;;;;;;1.67;0.73;;;18.00;91.90;;;;;;4822683;29;20038;-64
2022/06/02 04:32:07;;;;;;;1.00;0.77;;;18.20;92.10;;;;;;4837554;29;20090;-70
2022/06/02 04:34:58;;;;;;;1.35;0.60;;;18.20;91.80;;;;;;4837306;29;20082;-67
2022/06/02 04:37:43;;;;;;;3.47;0.82;;;18.20;91.50;;;;;;4838699;29;20502;-69
2022/06/02 04:40:13;;;;;;;2.75;0.70;;;18.10;91.40;;;;;;4844733;29;20518;-69
2022/06/02 04:43:00;;;;;;;1.65;1.02;;;18.00;92.40;;;;;;4838928;29;20045;-65
2022/06/02 04:45:48;;;;;;;1.60;0.60;;;18.00;91.80;;;;;;4837366;29;20041;-71
2022/06/02 04:48:51;;;;;;;1.73;0.70;;;17.80;91.20;;;;;;4837109;29;20038;-71
2022/06/02 04:51:38;;;;;;;5.15;0.73;;;17.70;91.70;;;;;;4838948;29;20034;-71
2022/06/02 04:54:26;;;;;;;1.70;0.93;;;17.70;91.60;;;;;;4837858;29;20058;-71
2022/06/02 04:57:00;;;;;;;2.67;0.60;;;17.70;92.00;;;;;;4834703;29;20026;-63
2022/06/02 04:59:38;;;;;;;2.15;0.90;;;17.90;91.00;;;;;;4841955;29;20033;-71
2022/06/02 05:02:08;;;;;;;2.25;0.52;;;17.80;91.10;;;;;;4875173;29;20479;-64
2022/06/02 05:04:54;;;;;;;4.80;1.48;;;17.80;91.40;;;;;;4883681;29;20032;-72
2022/06/02 05:07:44;;;;;;;2.30;0.73;;;17.80;90.90;;;;;;4972451;28;20030;-70
2022/06/02 05:10:46;;;;;;;4.43;1.08;;;17.90;91.40;;;;;;4971730;28;20035;-71
2022/06/02 05:13:35;;;;;;;2.80;1.25;;;18.00;90.40;;;;;;4914044;29;20033;-72
2022/06/02 05:16:11;;;;;;;3.08;1.02;;;18.30;90.60;;;;;;4917824;29;20059;-65
2022/06/02 05:18:53;;;;;;;1.77;0.70;;;18.50;90.70;;;;;;4905133;29;20039;-73
2022/06/02 05:21:43;;;;;;;1.88;0.60;;;18.50;89.90;;;;;;4903356;29;20036;-67
2022/06/02 05:24:10;;;;;;;1.00;0.75;;;18.60;90.10;;;;;;4908978;29;20524;-68
2022/06/02 05:27:11;;;;;;;2.25;0.82;;;19.00;89.60;;;;;;4910582;29;20052;-72
2022/06/02 05:29:56;;;;;;;2.08;0.70;;;19.30;88.50;;;;;;4944958;23;20058;-67
2022/06/02 05:32:54;;;;;;;1.42;1.00;;;19.20;86.90;;;;;;5007182;28;20312;-72
2022/06/02 05:35:43;;;;;;;1.90;0.70;;;19.00;87.10;;;;;;5008643;28;20080;-72
2022/06/02 05:38:41;;;;;;;2.80;0.80;;;18.80;87.80;;;;;;5008981;28;20375;-67
2022/06/02 05:41:43;;;;;;;1.92;1.17;;;18.80;87.50;;;;;;5009556;28;20029;-72
2022/06/02 05:44:35;;;;;;;1.08;0.77;;;19.00;87.40;;;;;;5005357;28;20497;-67
2022/06/02 05:47:22;;;;;;;1.57;0.70;;;18.50;87.90;;;;;;5005385;28;20058;-72
2022/06/02 05:50:18;;;;;;;2.15;0.93;;;17.60;89.80;;;;;;5009388;28;20022;-73
2022/06/02 05:53:09;;;;;;;3.35;0.80;;;17.00;90.10;;;;;;5005602;28;20029;-65
2022/06/02 05:56:03;;;;;;;2.58;1.00;;;16.10;91.60;;;;;;5009933;28;20034;-66
2022/06/02 05:58:45;;;;;;;1.95;1.00;;;15.60;93.70;;;;;;5008899;28;20065;-64
2022/06/02 06:01:47;;;;;;;0.80;0.63;;;15.20;94.00;;;;;;5001759;28;20038;-67
2022/06/02 06:04:30;;;;;;;2.00;0.90;;;14.90;95.00;;;;;;5015113;28;20481;-64
2022/06/02 06:07:08;;;;;;;3.65;0.90;;;14.60;95.80;;;;;;5006199;28;20081;-66
2022/06/02 06:09:52;;;;;;;2.65;1.10;;;14.50;96.50;;;;;;5009914;28;20364;-73
2022/06/02 06:12:40;;;;;;;3.97;0.90;;;14.60;97.60;;;;;;5008029;28;20013;-72
2022/06/02 06:15:22;;;;;;;3.05;1.45;;;14.60;98.10;;;;;;5008565;28;20025;-72
2022/06/02 06:18:13;;;;;;;4.63;1.38;;;14.60;98.60;;;;;;5010144;28;20474;-67
2022/06/02 06:20:40;;;;;;;1.65;0.80;;;14.50;99.00;;;;;;5005350;28;21082;-73
2022/06/02 06:23:35;;;;;;;3.30;1.35;;;14.30;99.20;;;;;;4987226;28;20058;-65
2022/06/02 06:26:12;;;;;;;2.75;1.40;;;14.20;99.90;;;;;;5007808;28;20377;-71
2022/06/02 06:28:57;;;;;;;3.10;1.38;;;14.00;99.90;;;;;;5009220;28;20022;-69
2022/06/02 06:31:38;;;;;;;3.72;1.10;;;13.70;99.90;;;;;;5007760;28;20045;-67
2022/06/02 06:34:36;;;;;;;2.08;1.00;;;13.50;99.90;;;;;;5006225;28;20076;-70
2022/06/02 06:37:33;;;;;;;2.63;1.65;;;13.40;99.90;;;;;;5006204;28;20108;-74
2022/06/02 06:40:07;;;;;;;3.80;1.92;;;13.30;99.90;;;;;;4911739;29;20039;-69
2022/06/02 06:42:49;;;;;;;5.32;2.05;;;13.30;99.90;;;;;;4917955;29;20047;-68
2022/06/02 06:45:31;;;;;;;8.30;2.78;;;13.10;99.90;;;;;;4913865;29;20031;-75
2022/06/02 06:48:35;;;;;;;9.90;3.45;;;12.90;99.90;;;;;;4917850;29;20130;-77
2022/06/02 06:51:02;;;;;;;11.95;3.42;;;12.90;99.90;;;;;;4854192;29;20558;-68
2022/06/02 06:53:39;;;;;;;12.27;3.05;;;13.00;99.90;;;;;;4854274;29;20042;-67
2022/06/02 06:56:24;;;;;;;7.68;2.53;;;13.00;99.90;;;;;;4851861;29;20037;-68
2022/06/02 06:59:24;;;;;;;4.50;1.92;;;12.90;99.90;;;;;;4852685;29;20046;-68
2022/06/02 07:02:23;;;;;;;4.15;1.77;;;12.90;99.90;;;;;;4854983;29;20049;-67
2022/06/02 07:05:12;;;;;;;6.90;2.25;;;12.70;99.90;;;;;;4785164;29;20057;-72
2022/06/02 07:07:40;;;;;;;7.22;2.28;;;12.50;99.90;;;;;;4785776;29;20031;-67
2022/06/02 07:10:10;;;;;;;5.45;2.20;;;12.50;99.90;;;;;;4780906;29;20090;-73
2022/06/02 07:12:55;;;;;;;3.80;1.77;;;12.50;99.90;;;;;;4783130;29;20111;-70
2022/06/02 07:15:44;;;;;;;9.82;2.70;;;12.40;99.90;;;;;;4784468;29;20650;-68
2022/06/02 07:18:38;;;;;;;2.95;1.52;;;12.40;99.90;;;;;;4835712;29;20076;-73
2022/06/02 07:21:26;;;;;;;3.08;1.65;;;12.20;99.90;;;;;;4836771;29;20094;-70
2022/06/02 07:24:37;;;;;;;7.20;2.78;;;12.10;99.90;;;;;;4168015;29;10000558;-67
2022/06/02 07:27:22;;;;;;;10.25;2.58;;;12.00;99.90;;;;;;4761860;29;20040;-71
2022/06/02 07:30:10;;;;;;;3.55;1.95;;;11.90;99.90;;;;;;4800755;29;20122;-66
2022/06/02 07:32:46;;;;;;;3.75;1.75;;;11.90;99.90;;;;;;4801971;29;20054;-71
2022/06/02 07:35:51;;;;;;;2.63;1.50;;;11.80;99.90;;;;;;4798242;29;20046;-71
2022/06/02 07:38:45;;;;;;;3.72;1.65;;;11.70;99.90;;;;;;4780142;29;20047;-66
2022/06/02 07:41:39;;;;;;;5.13;1.67;;;11.60;99.90;;;;;;4797985;29;20786;-69
2022/06/02 07:44:31;;;;;;;2.65;1.15;;;11.50;99.90;;;;;;4830681;29;20046;-71
2022/06/02 07:47:07;;;;;;;1.48;1.08;;;11.30;99.90;;;;;;4829873;29;20038;-72
2022/06/02 07:49:34;;;;;;;5.43;1.20;;;11.10;99.90;;;;;;4831201;29;20053;-69
2022/06/02 07:52:22;;;;;;;3.30;1.77;;;11.00;99.90;;;;;;4831413;29;20029;-71
2022/06/02 07:55:03;;;;;;;8.18;2.50;;;10.90;99.90;;;;;;4831914;29;20116;-70
2022/06/02 07:58:02;;;;;;;2.70;1.60;;;10.90;99.90;;;;;;4830817;29;20112;-68
2022/06/02 08:00:55;;;;;;;3.83;2.08;;;11.00;99.90;;;;;;4759717;30;20438;-72
2022/06/02 08:03:31;;;;;;;4.00;2.47;;;10.80;99.90;;;;;;4818029;29;20430;-72
2022/06/02 08:06:20;;;;;;;3.88;2.20;;;10.70;99.90;;;;;;4829952;29;20079;-69
2022/06/02 08:09:14;;;;;;;4.22;2.95;;;10.70;99.90;;;;;;4830391;29;20038;-72
2022/06/02 08:11:51;;;;;;;13.27;4.05;;;10.60;99.90;;;;;;4831125;29;20154;-72
2022/06/02 08:14:42;;;;;;;7.90;3.35;;;10.50;99.90;;;;;;4839608;29;20038;-66
2022/06/02 08:17:27;;;;;;;7.85;4.00;;;10.40;99.90;;;;;;4904151;29;20048;-70
2022/06/02 08:20:02;;;;;;;8.85;4.75;;;10.40;99.90;;;;;;4906073;29;20054;-70
2022/06/02 08:22:50;;;;;;;8.00;4.10;;;10.40;99.90;;;;;;4903494;29;20128;-72
2022/06/02 08:25:23;;;;;;;9.77;4.50;;;10.40;99.90;;;;;;4904183;29;20043;-68
2022/06/02 08:28:40;;;;;;;7.97;3.45;;;10.40;99.90;;;;;;4907731;29;20044;-70
2022/06/02 08:31:25;;;;;;;5.57;3.90;;;10.50;99.90;;;;;;4819178;29;20115;-68
2022/06/02 08:34:04;;;;;;;6.40;3.80;;;10.50;99.90;;;;;;4829447;29;20046;-68
2022/06/02 08:36:50;;;;;;;8.02;3.85;;;10.40;99.90;;;;;;4863906;29;20131;-68
2022/06/02 08:39:42;;;;;;;8.25;4.18;;;10.30;99.90;;;;;;4879116;29;20425;-68
2022/06/02 08:42:16;;;;;;;8.27;4.50;;;10.40;99.90;;;;;;4878342;29;20047;-71
2022/06/02 08:45:09;;;;;;;11.02;5.10;;;10.30;99.90;;;;;;4880980;29;20037;-65
2022/06/02 08:47:39;;;;;;;9.30;4.38;;;10.30;99.90;;;;;;4876693;29;20579;-69
2022/06/02 08:50:45;;;;;;;6.20;3.25;;;10.30;99.90;;;;;;4882423;29;20025;-67
2022/06/02 08:53:35;;;;;;;11.55;3.72;;;10.30;99.90;;;;;;4876263;29;20611;-65
2022/06/02 08:56:39;;;;;;;7.32;3.65;;;10.30;99.90;;;;;;4878830;29;20537;-69
2022/06/02 08:59:24;;;;;;;9.40;4.80;;;10.20;99.90;;;;;;4876380;29;20037;-65
2022/06/02 09:02:03;;;;;;;8.20;4.55;;;10.20;99.90;;;;;;4880679;29;20040;-66
2022/06/02 09:05:04;;;;;;;12.70;5.78;;;10.30;99.90;;;;;;4880035;29;20889;-70
2022/06/02 09:07:44;;;;;;;10.38;4.90;;;10.40;99.90;;;;;;4969863;28;20363;-76
2022/06/02 09:10:32;;;;;;;9.52;4.95;;;10.30;99.90;;;;;;5000897;28;20022;-64
2022/06/02 09:13:27;;;;;;;8.48;4.20;;;10.30;99.90;;;;;;4999817;28;20077;-69
2022/06/02 09:16:21;;;;;;;11.70;5.03;;;10.30;99.90;;;;;;5002573;28;20037;-68
2022/06/02 09:19:07;;;;;;;9.70;4.70;;;10.20;99.90;;;;;;5002284;28;20502;-68
2022/06/02 09:21:50;;;;;;;7.57;4.85;;;10.20;99.90;;;;;;4999463;28;20140;-67
2022/06/02 09:24:33;;;;;;;6.95;4.93;;;10.10;99.90;;;;;;4997328;28;20036;-66
2022/06/02 09:27:17;;;;;;;;;;;10.00;99.90;;;;;;4997722;28;20046;-66
2022/06/02 09:29:59;;;;;;;12.82;5.70;;;9.90;99.90;;;;;;4999276;28;19922;-71
2022/06/02 09:32:49;;;;;;;8.27;5.90;;;9.80;99.90;;;;;;4998686;28;20017;-69
2022/06/02 09:35:25;;;;;;;9.38;5.07;;;9.80;99.90;;;;;;4996978;28;20030;-71
2022/06/02 09:38:23;;;;;;;8.90;5.75;;;9.70;99.90;;;;;;4998208;28;20021;-73
2022/06/02 09:41:11;;;;;;;9.75;5.15;;;9.60;99.90;;;;;;4972080;28;20069;-73
2022/06/02 09:44:03;;;;;;;11.95;5.75;;;9.60;99.90;;;;;;4998773;28;20026;-73
2022/06/02 09:47:03;;;;;;;10.40;6.28;;;9.60;99.90;;;;;;4996014;28;20060;-71
2022/06/02 09:49:53;;;;;;;10.68;5.35;;;9.60;99.90;;;;;;5000942;28;20366;-76
2022/06/02 09:52:36;;;;;;;9.77;7.38;;;9.50;99.90;;;;;;4998405;28;20723;-70
2022/06/02 09:55:10;;;;;;;9.82;6.13;;;9.50;99.90;;;;;;4996714;28;20068;-75
2022/06/02 09:58:03;;;;;;;10.43;6.70;;;9.50;99.90;;;;;;4998116;28;20033;-72
2022/06/02 10:00:54;;;;;;;10.35;6.32;;;9.40;99.90;;;;;;4998251;28;20092;-71
2022/06/02 10:03:40;;;;;;;8.18;6.30;;;9.40;99.90;;;;;;4998572;28;20204;-68
2022/06/02 10:06:07;;;;;;;13.65;7.50;;;9.40;99.90;;;;;;4998768;28;20152;-71
2022/06/02 10:09:00;;;;;;;9.18;6.35;;;9.40;99.90;;;;;;4998428;28;20064;-72
2022/06/02 10:11:42;;;;;;;12.10;6.20;;;9.30;99.90;;;;;;4998328;28;20192;-74
2022/06/02 10:14:26;;;;;;;10.17;6.63;;;9.30;99.90;;;;;;4999378;28;20339;-68
2022/06/02 10:17:13;;;;;;;10.18;7.35;;;9.20;99.90;;;;;;4998794;28;20558;-71
2022/06/02 10:20:07;;;;;;;13.05;7.45;;;9.20;99.90;;;;;;4997695;28;20140;-74
2022/06/02 10:22:41;;;;;;;11.07;8.13;;;9.20;99.90;;;;;;4997760;28;20036;-65
2022/06/02 10:25:23;;;;;;;12.70;7.72;;;9.20;99.90;;;;;;4998327;28;20117;-66
2022/06/02 10:28:11;;;;;;;9.68;7.75;;;9.10;99.90;;;;;;4998327;28;20030;-71
2022/06/02 10:31:04;;;;;;;13.80;9.05;;;9.00;99.90;;;;;;4997106;28;20676;-68
2022/06/02 10:34:12;;;;;;;15.15;8.98;;;9.00;99.90;;;;;;4980283;28;20423;-70
2022/06/02 10:36:55;;;;;;;11.38;7.47;;;9.00;99.90;;;;;;4880668;29;20309;-71
2022/06/02 10:39:43;;;;;;;15.05;8.73;;;9.00;99.90;;;;;;4879894;29;20626;-70
2022/06/02 10:42:31;;;;;;;10.20;6.82;;;8.90;99.90;;;;;;4881569;29;20036;-66
2022/06/02 10:45:03;;;;;;;12.20;8.10;;;8.90;99.90;;;;;;4880521;29;20139;-68
2022/06/02 10:48:13;;;;;;;11.70;7.60;;;8.90;99.90;;;;;;4878225;29;20123;-69
2022/06/02 10:51:12;;;;;;;12.38;7.72;;;8.80;99.90;;;;;;4881244;29;20072;-68
2022/06/02 10:53:50;;;;;;;11.82;8.93;;;8.80;99.90;;;;;;4881258;29;20056;-66
2022/06/02 10:56:32;;;;;;;12.88;8.93;;;8.80;99.90;;;;;;4881185;29;20032;-67
2022/06/02 10:59:05;;;;;;;11.93;8.75;;;8.80;99.90;;;;;;4880177;29;20052;-67
2022/06/02 11:01:43;;;;;;;15.27;9.48;;;8.70;99.90;;;;;;4881471;29;20373;-71
2022/06/02 11:04:47;;;;;;;16.17;10.70;;;8.80;99.90;;;;;;4885096;29;20246;-68
2022/06/02 11:07:41;;;;;;;16.00;11.63;;;8.80;99.90;;;;;;4929238;28;20430;-69
2022/06/02 11:10:28;;;;;;;18.10;11.05;;;8.80;99.90;;;;;;4998154;28;20037;-71
2022/06/02 11:13:19;;;;;;;20.42;10.32;;;8.80;99.90;;;;;;4996969;28;20689;-73
2022/06/02 11:16:13;;;;;;;17.33;10.40;;;8.70;99.90;;;;;;4998066;28;20026;-71
2022/06/02 11:19:32;;;;;;;16.38;11.45;;;8.70;99.90;;;;;;5001186;28;20026;-74
2022/06/02 11:22:38;;;;;;;14.77;10.00;;;8.70;99.90;;;;;;4940765;28;20106;-71
2022/06/02 11:25:51;;;;;;;17.23;11.93;;;8.60;99.90;;;;;;4945017;28;20170;-67
2022/06/02 11:28:33;;;;;;;22.00;15.18;;;8.60;99.90;;;;;;4946697;28;20081;-65
2022/06/02 11:31:31;;;;;;;16.65;11.82;;;8.60;99.90;;;;;;4945943;28;20043;-68
2022/06/02 11:34:13;;;;;;;22.20;14.57;;;8.70;99.90;;;;;;4947771;28;20677;-70
2022/06/02 11:36:49;;;;;;;16.65;11.57;;;8.70;99.90;;;;;;4947994;28;20090;-69
2022/06/02 11:40:02;;;;;;;16.15;13.00;;;8.60;99.90;;;;;;4946710;28;20043;-72
2022/06/02 11:42:56;;;;;;;15.87;10.57;;;8.60;99.90;;;;;;4946017;28;20047;-66
2022/06/02 11:45:48;;;;;;;16.00;11.93;;;8.60;99.90;;;;;;4946947;28;20456;-71
2022/06/02 11:48:21;;;;;;;19.83;11.15;;;8.60;99.90;;;;;;4946880;28;20441;-69
2022/06/02 11:51:24;;;;;;;14.75;12.20;;;8.70;99.90;;;;;;4947960;28;20034;-69
2022/06/02 11:53:57;;;;;;;17.95;11.38;;;8.80;99.90;;;;;;4949848;28;20503;-70
2022/06/02 11:56:44;;;;;;;17.42;11.27;;;8.80;99.90;;;;;;4993754;28;20272;-66
2022/06/02 11:59:29;;;;;;;19.45;11.70;;;8.70;99.90;;;;;;5008151;28;20026;-70
2022/06/02 12:02:20;;;;;;;17.42;11.43;;;8.60;99.90;;;;;;5009586;28;20030;-71
2022/06/02 12:04:59;;;;;;;17.10;11.32;;;8.40;99.90;;;;;;5009431;28;20099;-66
2022/06/02 12:07:53;;;;;;;14.38;10.95;;;8.30;99.90;;;;;;5009319;28;20202;-66
2022/06/02 12:10:51;;;;;;;18.42;11.27;;;8.20;99.90;;;;;;5008516;28;20076;-71
2022/06/02 12:13:24;;;;;;;15.98;11.48;;;8.20;99.90;;;;;;5009871;28;20044;-66
2022/06/02 12:16:14;;;;;;;17.23;11.20;;;8.20;99.90;;;;;;5011116;28;20021;-70
2022/06/02 12:18:44;;;;;;;14.80;11.38;;;8.20;99.90;;;;;;5008512;28;20037;-72
2022/06/02 12:21:20;;;;;;;15.40;10.90;;;8.20;99.90;;;;;;5014158;28;20063;-71
2022/06/02 12:24:14;;;;;;;13.15;10.02;;;8.20;99.90;;;;;;5013249;28;20053;-70
2022/06/02 12:27:09;;;;;;;12.75;9.20;;;8.20;99.90;;;;;;5013092;28;20030;-67
2022/06/02 12:30:18;;;;;;;15.05;9.77;;;8.30;99.90;;;;;;5014613;28;20046;-70
2022/06/02 12:32:53;;;;;;;15.60;9.23;;;8.30;99.90;;;;;;5016748;28;20421;-73
2022/06/02 12:35:42;;;;;;;12.93;9.23;;;8.20;99.90;;;;;;5013511;28;20079;-72
2022/06/02 12:38:45;;;;;;;14.95;9.73;;;8.10;99.90;;;;;;5015992;28;20053;-69
2022/06/02 12:41:36;;;;;;;14.00;9.23;;;8.20;99.90;;;;;;5017375;28;20033;-67
2022/06/02 12:44:29;;;;;;;11.93;8.88;;;8.30;99.90;;;;;;5015253;28;20028;-69
2022/06/02 12:47:26;;;;;;;15.23;8.98;;;8.30;99.90;;;;;;5016406;28;20033;-68
2022/06/02 12:50:02;;;;;;;14.48;9.25;;;8.20;99.90;;;;;;5017518;28;20386;-68
2022/06/02 12:52:59;;;;;;;14.38;9.60;;;8.30;99.90;;;;;;5021053;28;20049;-70
2022/06/02 12:55:58;;;;;;;14.75;9.98;;;8.30;99.90;;;;;;5016592;28;20049;-69
2022/06/02 12:58:58;;;;;;;15.63;9.90;;;8.30;99.90;;;;;;5016611;28;20025;-69
2022/06/02 13:01:49;;;;;;;13.82;9.65;;;8.40;99.90;;;;;;5017407;28;20046;-68
2022/06/02 13:04:53;;;;;;;15.70;9.63;;;8.30;99.90;;;;;;5014721;28;20053;-69
2022/06/02 13:07:23;;;;;;;14.20;9.15;;;8.30;99.90;;;;;;5013041;28;20034;-70
2022/06/02 13:10:26;;;;;;;15.02;10.02;;;8.40;99.90;;;;;;5015561;28;20037;-73
2022/06/02 13:13:11;;;;;;;12.45;7.68;;;8.30;99.90;;;;;;5023962;28;20386;-73
2022/06/02 13:16:06;;;;;;;14.45;10.63;;;8.30;99.90;;;;;;5017580;28;20030;-66
2022/06/02 13:18:40;;;;;;;18.48;9.60;;;8.20;99.90;;;;;;5013361;28;20049;-66
2022/06/02 13:21:44;;;;;;;16.58;9.95;;;8.10;99.90;;;;;;5011862;28;20381;-67
2022/06/02 13:24:32;;;;;;;14.10;9.55;;;8.20;99.90;;;;;;5012598;28;20041;-72
2022/06/02 13:27:17;;;;;;;16.33;10.35;;;8.20;99.90;;;;;;5012716;28;20037;-67
2022/06/02 13:30:06;;;;;;;13.50;9.45;;;8.20;99.90;;;;;;5012556;28;20042;-66
2022/06/02 13:32:54;;;;;;;13.50;10.15;;;8.20;99.90;;;;;;5015268;28;20061;-72
2022/06/02 13:35:51;;;;;;;13.65;10.18;;;8.30;99.90;;;;;;5011285;28;20033;-67
2022/06/02 13:38:57;;;;;;;15.10;8.77;;;8.30;99.90;;;;;;5018784;28;20022;-67
2022/06/02 13:41:51;;;;;;;12.10;8.73;;;8.20;99.90;;;;;;4944632;29;20045;-67
2022/06/02 13:44:26;;;;;;;12.15;9.43;;;8.10;99.90;;;;;;4942527;29;20035;-66
2022/06/02 13:47:29;;;;;;;16.38;9.90;;;8.00;99.90;;;;;;4942630;29;20046;-71
2022/06/02 13:50:08;;;;;;;11.65;8.40;;;8.00;99.90;;;;;;4932330;29;20035;-67
2022/06/02 13:53:23;;;;;;;12.10;9.38;;;7.90;99.90;;;;;;4937544;29;20389;-72
2022/06/02 13:59:49;;;;;;;19.10;10.75;;;8.10;99.90;;;;;;4940575;29;20085;-67
2022/06/02 14:02:34;;;;;;;14.85;11.20;;;8.00;99.90;;;;;;4856342;29;20617;-70
2022/06/02 14:05:28;;;;;;;16.80;11.13;;;8.00;99.90;;;;;;4860527;29;20106;-67
2022/06/02 14:07:55;;;;;;;19.83;11.70;;;8.00;99.90;;;;;;4855375;29;20041;-70
2022/06/02 14:10:29;;;;;;;16.65;10.82;;;7.90;99.90;;;;;;4844114;29;20392;-67
2022/06/02 14:13:14;;;;;;;20.52;14.02;;;7.90;99.90;;;;;;4857528;29;20131;-71
2022/06/02 14:16:09;;;;;;;23.33;13.32;;;7.90;99.90;;;;;;4858761;29;20040;-72
2022/06/02 14:18:44;;;;;;;18.90;12.80;;;7.80;99.90;;;;;;4879604;29;20508;-67
2022/06/02 14:21:46;;;;;;;27.65;15.60;;;7.70;99.90;;;;;;4902105;29;20032;-72
2022/06/02 14:24:13;;;;;;;23.55;15.25;;;7.80;99.90;;;;;;4898257;29;20127;-67
2022/06/02 14:27:01;;;;;;;35.90;19.75;;;7.60;99.90;;;;;;4898687;29;20420;-67
2022/06/02 14:29:50;;;;;;;25.38;14.77;;;7.50;99.90;;;;;;4897995;29;20048;-72
2022/06/02 14:32:42;;;;;;;27.90;17.38;;;7.30;99.90;;;;;;4898658;29;20170;-74
2022/06/02 14:35:42;;;;;;;30.17;19.40;;;7.20;99.90;;;;;;4896939;29;20473;-67
2022/06/02 14:38:25;;;;;;;35.28;24.98;;;7.20;99.90;;;;;;4969365;28;20042;-74
2022/06/02 14:41:20;;;;;;;41.57;29.50;;;7.20;99.90;;;;;;5014757;28;20063;-71